sensor_id;sensor_type;location;lat;lon;timestamp;pressure;altitude;pressure_sealevel;temperature;humidity
4024;BME280;2026;51.002;13.668;2023-02-10T00:02:33;100745.25;;;-1.48;64.93
4024;BME280;2026;51.002;13.668;2023-02-10T00:07:37;100741.66;;;-1.59;64.59
4024;BME280;2026;51.002;13.668;2023-02-10T00:12:39;100736.47;;;-1.74;65.11
4024;BME280;2026;51.002;13.668;2023-02-10T00:17:44;100734.66;;;-1.86;65.64
4024;BME280;2026;51.002;13.668;2023-02-10T00:22:47;100725.47;;;-1.76;65.78
4024;BME280;2026;51.002;13.668;2023-02-10T00:27:49;100731.81;;;-1.82;66.17
4024;BME280;2026;51.002;13.668;2023-02-10T00:32:54;100741.34;;;-1.84;65.66
4024;BME280;2026;51.002;13.668;2023-02-10T00:37:57;100739.78;;;-1.86;66.10
4024;BME280;2026;51.002;13.668;2023-02-10T00:43:00;100745.63;;;-1.99;66.16
4024;BME280;2026;51.002;13.668;2023-02-10T00:48:04;100757.72;;;-1.85;65.84
4024;BME280;2026;51.002;13.668;2023-02-10T00:53:07;100762.88;;;-2.01;66.75
4024;BME280;2026;51.002;13.668;2023-02-10T00:58:10;100768.88;;;-1.86;65.56
4024;BME280;2026;51.002;13.668;2023-02-10T01:03:15;100766.75;;;-1.94;65.89
4024;BME280;2026;51.002;13.668;2023-02-10T01:08:18;100753.94;;;-1.79;64.82
4024;BME280;2026;51.002;13.668;2023-02-10T01:13:21;100757.25;;;-1.77;65.04
4024;BME280;2026;51.002;13.668;2023-02-10T01:18:25;100752.66;;;-1.86;65.38
4024;BME280;2026;51.002;13.668;2023-02-10T01:23:28;100761.09;;;-1.84;65.15
4024;BME280;2026;51.002;13.668;2023-02-10T01:28:33;100771.63;;;-1.89;65.63
4024;BME280;2026;51.002;13.668;2023-02-10T01:33:40;100780.94;;;-1.86;65.18
4024;BME280;2026;51.002;13.668;2023-02-10T01:38:44;100768.38;;;-2.07;66.21
4024;BME280;2026;51.002;13.668;2023-02-10T01:43:59;100756.75;;;-2.45;67.62
4024;BME280;2026;51.002;13.668;2023-02-10T01:49:06;100768.44;;;-2.09;66.53
4024;BME280;2026;51.002;13.668;2023-02-10T01:54:14;100774.56;;;-2.26;66.83
4024;BME280;2026;51.002;13.668;2023-02-10T01:59:19;100773.75;;;-2.42;67.64
4024;BME280;2026;51.002;13.668;2023-02-10T02:04:24;100774.47;;;-2.56;68.60
4024;BME280;2026;51.002;13.668;2023-02-10T02:09:27;100767.28;;;-2.50;68.54
4024;BME280;2026;51.002;13.668;2023-02-10T02:14:35;100771.41;;;-2.31;67.37
4024;BME280;2026;51.002;13.668;2023-02-10T02:19:57;100773.38;;;-2.36;67.19
4024;BME280;2026;51.002;13.668;2023-02-10T02:25:32;100771.53;;;-2.18;66.52
4024;BME280;2026;51.002;13.668;2023-02-10T02:31:04;100784.22;;;-2.15;66.57
4024;BME280;2026;51.002;13.668;2023-02-10T02:36:19;100779.81;;;-2.13;66.06
4024;BME280;2026;51.002;13.668;2023-02-10T02:41:25;100780.22;;;-2.05;66.30
4024;BME280;2026;51.002;13.668;2023-02-10T02:46:34;100771.19;;;-2.12;66.57
4024;BME280;2026;51.002;13.668;2023-02-10T02:51:48;100785.09;;;-2.00;65.70
4024;BME280;2026;51.002;13.668;2023-02-10T02:57:03;100782.97;;;-2.08;65.79
4024;BME280;2026;51.002;13.668;2023-02-10T03:02:12;100775.53;;;-2.12;66.17
4024;BME280;2026;51.002;13.668;2023-02-10T03:07:18;100779.75;;;-2.11;65.95
4024;BME280;2026;51.002;13.668;2023-02-10T03:12:21;100778.13;;;-1.98;65.81
4024;BME280;2026;51.002;13.668;2023-02-10T03:17:24;100784.41;;;-1.87;65.70
4024;BME280;2026;51.002;13.668;2023-02-10T03:22:28;100782.88;;;-1.76;65.25
4024;BME280;2026;51.002;13.668;2023-02-10T03:27:31;100782.38;;;-1.82;65.31
4024;BME280;2026;51.002;13.668;2023-02-10T03:32:34;100803.53;;;-1.77;65.76
4024;BME280;2026;51.002;13.668;2023-02-10T03:37:38;100786.84;;;-1.70;65.05
4024;BME280;2026;51.002;13.668;2023-02-10T03:42:42;100793.81;;;-1.72;65.23
4024;BME280;2026;51.002;13.668;2023-02-10T03:47:45;100796.22;;;-1.54;65.31
4024;BME280;2026;51.002;13.668;2023-02-10T03:52:49;100789.72;;;-1.60;64.89
4024;BME280;2026;51.002;13.668;2023-02-10T03:57:52;100771.44;;;-1.55;65.30
4024;BME280;2026;51.002;13.668;2023-02-10T04:02:55;100787.78;;;-1.56;65.43
4024;BME280;2026;51.002;13.668;2023-02-10T04:07:59;100783.03;;;-1.48;65.30
4024;BME280;2026;51.002;13.668;2023-02-10T04:13:03;100782.84;;;-1.30;65.54
4024;BME280;2026;51.002;13.668;2023-02-10T04:18:06;100781.91;;;-1.29;65.22
4024;BME280;2026;51.002;13.668;2023-02-10T04:23:10;100797.56;;;-1.18;64.83
4024;BME280;2026;51.002;13.668;2023-02-10T04:28:13;100797.38;;;-1.15;64.60
4024;BME280;2026;51.002;13.668;2023-02-10T04:33:16;100811.16;;;-1.16;64.74
4024;BME280;2026;51.002;13.668;2023-02-10T04:38:21;100816.88;;;-1.25;65.54
4024;BME280;2026;51.002;13.668;2023-02-10T04:43:24;100824.38;;;-1.22;65.85
4024;BME280;2026;51.002;13.668;2023-02-10T04:48:27;100831.75;;;-1.16;66.61
4024;BME280;2026;51.002;13.668;2023-02-10T04:53:31;100849.59;;;-0.98;66.34
4024;BME280;2026;51.002;13.668;2023-02-10T04:58:34;100846.84;;;-1.10;67.51
4024;BME280;2026;51.002;13.668;2023-02-10T05:03:37;100843.69;;;-1.15;71.37
4024;BME280;2026;51.002;13.668;2023-02-10T05:08:42;100853.09;;;-0.99;72.06
4024;BME280;2026;51.002;13.668;2023-02-10T05:13:45;100848.78;;;-0.99;71.82
4024;BME280;2026;51.002;13.668;2023-02-10T05:18:48;100852.34;;;-1.01;73.36
4024;BME280;2026;51.002;13.668;2023-02-10T05:23:52;100867.50;;;-1.11;73.57
4024;BME280;2026;51.002;13.668;2023-02-10T05:28:55;100873.97;;;-1.04;73.37
4024;BME280;2026;51.002;13.668;2023-02-10T05:33:58;100868.91;;;-0.91;74.28
4024;BME280;2026;51.002;13.668;2023-02-10T05:39:02;100879.78;;;-0.86;75.63
4024;BME280;2026;51.002;13.668;2023-02-10T05:51:34;100870.91;;;-0.82;74.04
4024;BME280;2026;51.002;13.668;2023-02-10T05:56:38;100878.09;;;-0.72;73.72
4024;BME280;2026;51.002;13.668;2023-02-10T06:01:42;100881.50;;;-0.72;74.34
4024;BME280;2026;51.002;13.668;2023-02-10T06:06:45;100890.97;;;-0.72;75.47
4024;BME280;2026;51.002;13.668;2023-02-10T06:11:50;100896.22;;;-0.59;75.82
4024;BME280;2026;51.002;13.668;2023-02-10T06:16:53;100897.69;;;-0.55;76.28
4024;BME280;2026;51.002;13.668;2023-02-10T06:21:56;100909.00;;;-0.58;76.40
4024;BME280;2026;51.002;13.668;2023-02-10T06:27:00;100900.91;;;-0.52;77.43
4024;BME280;2026;51.002;13.668;2023-02-10T06:32:04;100911.03;;;-0.48;77.77
4024;BME280;2026;51.002;13.668;2023-02-10T06:37:07;100905.50;;;-0.57;78.16
4024;BME280;2026;51.002;13.668;2023-02-10T06:42:11;100920.44;;;-0.47;78.77
4024;BME280;2026;51.002;13.668;2023-02-10T06:47:14;100919.19;;;-0.27;77.96
4024;BME280;2026;51.002;13.668;2023-02-10T06:52:16;100930.53;;;-0.30;79.82
4024;BME280;2026;51.002;13.668;2023-02-10T06:57:21;100943.22;;;-0.27;79.14
4024;BME280;2026;51.002;13.668;2023-02-10T07:02:26;100946.16;;;-0.18;78.83
4024;BME280;2026;51.002;13.668;2023-02-10T07:07:31;100959.22;;;-0.07;78.28
4024;BME280;2026;51.002;13.668;2023-02-10T07:12:35;100955.34;;;0.00;78.27
4024;BME280;2026;51.002;13.668;2023-02-10T07:17:38;100961.97;;;-0.10;78.94
4024;BME280;2026;51.002;13.668;2023-02-10T07:22:41;100950.56;;;-0.06;78.58
4024;BME280;2026;51.002;13.668;2023-02-10T07:27:45;100967.31;;;0.01;78.75
4024;BME280;2026;51.002;13.668;2023-02-10T07:32:48;100984.22;;;0.06;78.28
4024;BME280;2026;51.002;13.668;2023-02-10T07:37:51;100967.28;;;0.16;78.78
4024;BME280;2026;51.002;13.668;2023-02-10T07:42:55;100963.47;;;0.22;78.45
4024;BME280;2026;51.002;13.668;2023-02-10T07:48:10;100957.34;;;0.37;78.15
4024;BME280;2026;51.002;13.668;2023-02-10T07:53:13;100968.69;;;0.35;78.03
4024;BME280;2026;51.002;13.668;2023-02-10T07:58:17;100963.34;;;0.38;78.83
4024;BME280;2026;51.002;13.668;2023-02-10T08:03:20;100960.94;;;0.35;78.70
4024;BME280;2026;51.002;13.668;2023-02-10T08:08:23;100972.69;;;0.53;78.58
4024;BME280;2026;51.002;13.668;2023-02-10T08:13:27;100982.94;;;0.68;78.23
4024;BME280;2026;51.002;13.668;2023-02-10T08:18:31;100980.97;;;0.71;78.61
4024;BME280;2026;51.002;13.668;2023-02-10T08:23:34;100979.97;;;0.74;79.01
4024;BME280;2026;51.002;13.668;2023-02-10T08:28:39;100978.78;;;0.93;78.62
4024;BME280;2026;51.002;13.668;2023-02-10T08:33:42;100982.06;;;0.82;78.97
4024;BME280;2026;51.002;13.668;2023-02-10T08:38:49;100977.72;;;0.95;78.21
4024;BME280;2026;51.002;13.668;2023-02-10T08:43:54;100986.84;;;1.01;78.03
4024;BME280;2026;51.002;13.668;2023-02-10T08:48:57;100985.22;;;1.13;77.87
4024;BME280;2026;51.002;13.668;2023-02-10T08:54:02;100989.22;;;1.04;78.68
4024;BME280;2026;51.002;13.668;2023-02-10T08:59:07;101006.19;;;1.08;78.54
4024;BME280;2026;51.002;13.668;2023-02-10T09:04:10;101021.06;;;1.18;78.25
4024;BME280;2026;51.002;13.668;2023-02-10T09:09:15;101024.69;;;1.28;78.06
4024;BME280;2026;51.002;13.668;2023-02-10T09:14:20;101024.72;;;0.88;79.33
4024;BME280;2026;51.002;13.668;2023-02-10T09:19:23;101023.84;;;1.15;79.57
4024;BME280;2026;51.002;13.668;2023-02-10T09:24:26;101024.91;;;1.38;78.31
4024;BME280;2026;51.002;13.668;2023-02-10T09:29:31;101033.41;;;1.40;78.04
4024;BME280;2026;51.002;13.668;2023-02-10T09:34:33;101032.78;;;1.49;77.41
4024;BME280;2026;51.002;13.668;2023-02-10T09:39:37;101041.16;;;1.53;78.01
4024;BME280;2026;51.002;13.668;2023-02-10T09:44:47;101039.94;;;1.72;76.84
4024;BME280;2026;51.002;13.668;2023-02-10T09:55:26;101025.31;;;1.84;77.41
4024;BME280;2026;51.002;13.668;2023-02-10T10:00:35;101020.94;;;1.97;77.50
4024;BME280;2026;51.002;13.668;2023-02-10T10:05:46;101022.63;;;1.98;77.62
4024;BME280;2026;51.002;13.668;2023-02-10T10:10:51;101016.06;;;2.05;77.12
4024;BME280;2026;51.002;13.668;2023-02-10T10:16:13;101022.28;;;2.03;78.24
4024;BME280;2026;51.002;13.668;2023-02-10T10:21:23;101022.34;;;2.14;78.26
4024;BME280;2026;51.002;13.668;2023-02-10T10:26:41;101023.53;;;2.10;78.53
4024;BME280;2026;51.002;13.668;2023-02-10T10:31:53;101032.03;;;1.99;79.45
4024;BME280;2026;51.002;13.668;2023-02-10T10:36:58;101035.53;;;2.11;79.42
4024;BME280;2026;51.002;13.668;2023-02-10T10:42:07;101022.34;;;2.14;78.93
4024;BME280;2026;51.002;13.668;2023-02-10T10:47:28;101026.75;;;1.88;79.27
4024;BME280;2026;51.002;13.668;2023-02-10T10:52:34;101026.56;;;1.91;79.74
4024;BME280;2026;51.002;13.668;2023-02-10T10:57:39;101020.22;;;1.95;79.91
4024;BME280;2026;51.002;13.668;2023-02-10T11:02:53;101022.28;;;1.90;80.29
4024;BME280;2026;51.002;13.668;2023-02-10T11:07:56;101026.69;;;1.76;80.76
4024;BME280;2026;51.002;13.668;2023-02-10T11:13:00;101030.69;;;1.80;80.02
4024;BME280;2026;51.002;13.668;2023-02-10T11:18:07;101030.06;;;1.77;80.43
4024;BME280;2026;51.002;13.668;2023-02-10T11:23:16;101029.97;;;1.91;80.05
4024;BME280;2026;51.002;13.668;2023-02-10T11:28:23;101036.28;;;1.87;79.94
4024;BME280;2026;51.002;13.668;2023-02-10T11:33:30;101033.59;;;1.76;79.45
4024;BME280;2026;51.002;13.668;2023-02-10T11:38:34;101037.41;;;1.96;79.18
4024;BME280;2026;51.002;13.668;2023-02-10T11:43:41;101045.03;;;2.11;78.76
4024;BME280;2026;51.002;13.668;2023-02-10T11:48:53;101052.59;;;2.01;78.45
4024;BME280;2026;51.002;13.668;2023-02-10T11:53:58;101041.13;;;2.05;78.60
4024;BME280;2026;51.002;13.668;2023-02-10T11:59:06;101042.25;;;2.01;79.44
4024;BME280;2026;51.002;13.668;2023-02-10T12:04:24;101038.81;;;2.13;79.24
4024;BME280;2026;51.002;13.668;2023-02-10T12:09:36;101034.16;;;2.18;78.62
4024;BME280;2026;51.002;13.668;2023-02-10T12:14:49;101031.69;;;2.17;79.02
4024;BME280;2026;51.002;13.668;2023-02-10T12:20:11;101027.41;;;2.29;78.78
4024;BME280;2026;51.002;13.668;2023-02-10T12:25:19;101015.00;;;2.45;78.67
4024;BME280;2026;51.002;13.668;2023-02-10T12:30:38;101015.41;;;2.76;76.88
4024;BME280;2026;51.002;13.668;2023-02-10T12:35:51;101026.50;;;2.54;76.85
4024;BME280;2026;51.002;13.668;2023-02-10T12:41:06;101016.59;;;2.59;76.83
4024;BME280;2026;51.002;13.668;2023-02-10T12:46:19;101009.72;;;2.71;76.15
4024;BME280;2026;51.002;13.668;2023-02-10T12:51:38;101009.16;;;3.26;74.35
4024;BME280;2026;51.002;13.668;2023-02-10T12:56:50;100992.94;;;3.36;73.65
4024;BME280;2026;51.002;13.668;2023-02-10T13:01:55;100987.41;;;3.40;73.90
4024;BME280;2026;51.002;13.668;2023-02-10T13:07:04;100984.91;;;3.39;73.40
4024;BME280;2026;51.002;13.668;2023-02-10T13:12:15;100976.06;;;3.30;73.27
4024;BME280;2026;51.002;13.668;2023-02-10T13:17:20;100970.28;;;3.15;74.07
4024;BME280;2026;51.002;13.668;2023-02-10T13:22:34;100973.38;;;3.43;73.20
4024;BME280;2026;51.002;13.668;2023-02-10T13:27:52;100964.19;;;3.50;73.61
4024;BME280;2026;51.002;13.668;2023-02-10T13:33:04;100955.09;;;3.33;74.18
4024;BME280;2026;51.002;13.668;2023-02-10T13:38:17;100959.25;;;3.58;73.77
4024;BME280;2026;51.002;13.668;2023-02-10T13:43:27;100956.16;;;3.65;73.33
4024;BME280;2026;51.002;13.668;2023-02-10T13:48:35;100937.38;;;3.84;72.46
4024;BME280;2026;51.002;13.668;2023-02-10T13:53:41;100935.66;;;3.62;73.23
4024;BME280;2026;51.002;13.668;2023-02-10T13:58:50;100939.53;;;3.79;72.66
4024;BME280;2026;51.002;13.668;2023-02-10T14:03:54;100941.41;;;3.88;71.63
4024;BME280;2026;51.002;13.668;2023-02-10T14:09:03;100938.94;;;3.75;72.11
4024;BME280;2026;51.002;13.668;2023-02-10T14:14:24;100939.63;;;3.77;72.68
4024;BME280;2026;51.002;13.668;2023-02-10T14:19:30;100933.06;;;3.62;72.83
4024;BME280;2026;51.002;13.668;2023-02-10T14:24:38;100930.94;;;3.67;72.68
4024;BME280;2026;51.002;13.668;2023-02-10T14:29:53;100934.22;;;3.69;71.87
4024;BME280;2026;51.002;13.668;2023-02-10T14:34:58;100933.88;;;3.73;72.37
4024;BME280;2026;51.002;13.668;2023-02-10T14:40:04;100942.00;;;3.69;72.57
4024;BME280;2026;51.002;13.668;2023-02-10T14:45:18;100930.66;;;3.81;72.01
4024;BME280;2026;51.002;13.668;2023-02-10T14:50:23;100930.13;;;3.55;72.69
4024;BME280;2026;51.002;13.668;2023-02-10T14:55:31;100916.19;;;3.67;72.47
4024;BME280;2026;51.002;13.668;2023-02-10T15:00:35;100924.78;;;3.79;72.59
4024;BME280;2026;51.002;13.668;2023-02-10T15:05:45;100924.41;;;3.84;71.91
4024;BME280;2026;51.002;13.668;2023-02-10T15:10:52;100916.28;;;3.77;72.26
4024;BME280;2026;51.002;13.668;2023-02-10T15:15:57;100918.56;;;3.70;72.35
4024;BME280;2026;51.002;13.668;2023-02-10T15:21:03;100912.78;;;3.67;72.05
4024;BME280;2026;51.002;13.668;2023-02-10T15:26:17;100921.53;;;3.43;73.22
4024;BME280;2026;51.002;13.668;2023-02-10T15:31:23;100913.13;;;3.51;72.71
4024;BME280;2026;51.002;13.668;2023-02-10T15:36:30;100898.88;;;3.45;73.97
4024;BME280;2026;51.002;13.668;2023-02-10T15:41:39;100899.69;;;3.45;75.72
4024;BME280;2026;51.002;13.668;2023-02-10T15:46:43;100899.47;;;3.49;72.72
4024;BME280;2026;51.002;13.668;2023-02-10T15:51:48;100898.41;;;3.40;73.23
4024;BME280;2026;51.002;13.668;2023-02-10T15:56:56;100897.97;;;3.35;72.48
4024;BME280;2026;51.002;13.668;2023-02-10T16:02:00;100895.69;;;3.41;72.64
4024;BME280;2026;51.002;13.668;2023-02-10T16:07:04;100904.19;;;3.21;73.59
4024;BME280;2026;51.002;13.668;2023-02-10T16:12:09;100900.78;;;3.20;73.10
4024;BME280;2026;51.002;13.668;2023-02-10T16:17:18;100908.19;;;3.02;73.43
4024;BME280;2026;51.002;13.668;2023-02-10T16:22:22;100903.81;;;2.91;73.62
4024;BME280;2026;51.002;13.668;2023-02-10T16:27:27;100908.19;;;3.02;73.65
4024;BME280;2026;51.002;13.668;2023-02-10T16:39:12;100912.63;;;2.88;74.11
4024;BME280;2026;51.002;13.668;2023-02-10T16:44:17;100913.16;;;2.69;74.86
4024;BME280;2026;51.002;13.668;2023-02-10T16:49:20;100906.59;;;2.65;74.64
4024;BME280;2026;51.002;13.668;2023-02-10T16:54:23;100905.81;;;2.52;75.51
4024;BME280;2026;51.002;13.668;2023-02-10T16:59:29;100914.88;;;2.21;76.39
4024;BME280;2026;51.002;13.668;2023-02-10T17:04:33;100914.19;;;2.19;76.80
4024;BME280;2026;51.002;13.668;2023-02-10T17:09:36;100915.94;;;1.81;78.56
4024;BME280;2026;51.002;13.668;2023-02-10T17:14:41;100915.19;;;1.92;78.29
4024;BME280;2026;51.002;13.668;2023-02-10T17:19:44;100912.31;;;1.84;78.17
4024;BME280;2026;51.002;13.668;2023-02-10T17:24:47;100914.59;;;1.89;77.71
4024;BME280;2026;51.002;13.668;2023-02-10T17:29:51;100904.84;;;1.92;77.06
4024;BME280;2026;51.002;13.668;2023-02-10T17:34:54;100891.22;;;1.90;77.86
4024;BME280;2026;51.002;13.668;2023-02-10T17:39:57;100897.66;;;1.85;77.68
4024;BME280;2026;51.002;13.668;2023-02-10T17:45:27;100892.38;;;1.86;77.56
4024;BME280;2026;51.002;13.668;2023-02-10T17:50:30;100903.63;;;1.85;77.70
4024;BME280;2026;51.002;13.668;2023-02-10T17:55:33;100907.59;;;1.78;78.21
4024;BME280;2026;51.002;13.668;2023-02-10T18:00:37;100905.31;;;1.86;77.54
4024;BME280;2026;51.002;13.668;2023-02-10T18:05:42;100899.91;;;1.89;77.22
4024;BME280;2026;51.002;13.668;2023-02-10T18:10:46;100907.25;;;1.95;76.63
4024;BME280;2026;51.002;13.668;2023-02-10T18:15:53;100912.41;;;1.95;76.54
4024;BME280;2026;51.002;13.668;2023-02-10T18:20:56;100905.94;;;1.77;77.91
4024;BME280;2026;51.002;13.668;2023-02-10T18:25:59;100899.53;;;1.70;78.45
4024;BME280;2026;51.002;13.668;2023-02-10T18:31:03;100886.69;;;1.81;77.37
4024;BME280;2026;51.002;13.668;2023-02-10T18:36:08;100884.63;;;1.86;77.67
4024;BME280;2026;51.002;13.668;2023-02-10T18:41:11;100890.78;;;1.97;75.94
4024;BME280;2026;51.002;13.668;2023-02-10T18:46:15;100895.81;;;1.74;77.87
4024;BME280;2026;51.002;13.668;2023-02-10T18:51:19;100896.19;;;1.80;79.46
4024;BME280;2026;51.002;13.668;2023-02-10T18:56:22;100899.69;;;1.92;75.79
4024;BME280;2026;51.002;13.668;2023-02-10T19:01:26;100895.38;;;1.80;77.20
4024;BME280;2026;51.002;13.668;2023-02-10T19:06:30;100887.53;;;1.68;76.49
4024;BME280;2026;51.002;13.668;2023-02-10T19:11:33;100901.31;;;1.93;74.32
4024;BME280;2026;51.002;13.668;2023-02-10T19:16:37;100906.38;;;1.71;75.20
4024;BME280;2026;51.002;13.668;2023-02-10T19:21:40;100897.84;;;1.81;75.63
4024;BME280;2026;51.002;13.668;2023-02-10T19:26:43;100883.88;;;1.60;75.83
4024;BME280;2026;51.002;13.668;2023-02-10T19:31:48;100873.81;;;1.68;74.38
4024;BME280;2026;51.002;13.668;2023-02-10T19:36:51;100865.22;;;1.67;74.61
4024;BME280;2026;51.002;13.668;2023-02-10T19:41:54;100852.38;;;1.66;74.93
4024;BME280;2026;51.002;13.668;2023-02-10T19:46:58;100846.59;;;1.75;74.09
4024;BME280;2026;51.002;13.668;2023-02-10T19:52:01;100820.00;;;1.49;74.82
4024;BME280;2026;51.002;13.668;2023-02-10T19:57:04;100825.47;;;1.44;74.88
4024;BME280;2026;51.002;13.668;2023-02-10T20:02:09;100830.66;;;1.44;74.65
4024;BME280;2026;51.002;13.668;2023-02-10T20:07:12;100833.47;;;1.28;75.51
4024;BME280;2026;51.002;13.668;2023-02-10T20:12:15;100827.28;;;1.18;75.65
4024;BME280;2026;51.002;13.668;2023-02-10T20:17:19;100809.63;;;1.11;75.87
4024;BME280;2026;51.002;13.668;2023-02-10T20:22:22;100813.47;;;1.06;75.86
4024;BME280;2026;51.002;13.668;2023-02-10T20:27:25;100822.47;;;1.00;76.05
4024;BME280;2026;51.002;13.668;2023-02-10T20:32:30;100822.97;;;1.05;75.94
4024;BME280;2026;51.002;13.668;2023-02-10T20:37:33;100832.59;;;1.03;75.59
4024;BME280;2026;51.002;13.668;2023-02-10T20:42:36;100837.03;;;1.01;75.88
4024;BME280;2026;51.002;13.668;2023-02-10T20:47:40;100840.41;;;1.15;75.39
4024;BME280;2026;51.002;13.668;2023-02-10T20:52:43;100844.25;;;1.09;75.37
4024;BME280;2026;51.002;13.668;2023-02-10T20:57:46;100851.06;;;1.10;75.49
4024;BME280;2026;51.002;13.668;2023-02-10T21:02:50;100841.25;;;1.15;74.54
4024;BME280;2026;51.002;13.668;2023-02-10T21:07:53;100827.28;;;1.18;74.96
4024;BME280;2026;51.002;13.668;2023-02-10T21:12:56;100829.56;;;1.22;74.41
4024;BME280;2026;51.002;13.668;2023-02-10T21:18:00;100832.88;;;1.11;75.19
4024;BME280;2026;51.002;13.668;2023-02-10T21:23:04;100833.94;;;0.96;75.26
4024;BME280;2026;51.002;13.668;2023-02-10T21:28:06;100824.91;;;1.15;74.85
4024;BME280;2026;51.002;13.668;2023-02-10T21:33:11;100825.25;;;0.97;75.28
4024;BME280;2026;51.002;13.668;2023-02-10T21:38:15;100831.44;;;1.07;75.13
4024;BME280;2026;51.002;13.668;2023-02-10T21:43:18;100823.06;;;1.17;74.83
4024;BME280;2026;51.002;13.668;2023-02-10T21:48:22;100826.25;;;1.20;76.46
4024;BME280;2026;51.002;13.668;2023-02-10T21:53:25;100825.28;;;1.34;76.26
4024;BME280;2026;51.002;13.668;2023-02-10T21:58:28;100808.97;;;1.21;74.51
4024;BME280;2026;51.002;13.668;2023-02-10T22:03:32;100812.69;;;1.30;74.02
4024;BME280;2026;51.002;13.668;2023-02-10T22:08:35;100790.25;;;1.30;74.59
4024;BME280;2026;51.002;13.668;2023-02-10T22:13:39;100787.78;;;1.29;74.02
4024;BME280;2026;51.002;13.668;2023-02-10T22:18:44;100787.34;;;1.35;73.71
4024;BME280;2026;51.002;13.668;2023-02-10T22:23:47;100798.31;;;1.25;74.09
4024;BME280;2026;51.002;13.668;2023-02-10T22:28:51;100786.09;;;1.40;74.03
4024;BME280;2026;51.002;13.668;2023-02-10T22:33:57;100778.03;;;1.45;73.96
4024;BME280;2026;51.002;13.668;2023-02-10T22:39:00;100773.84;;;1.56;73.97
4024;BME280;2026;51.002;13.668;2023-02-10T22:44:05;100785.00;;;1.56;73.68
4024;BME280;2026;51.002;13.668;2023-02-10T22:49:09;100765.53;;;1.63;73.64
4024;BME280;2026;51.002;13.668;2023-02-10T22:54:14;100768.84;;;1.65;73.87
4024;BME280;2026;51.002;13.668;2023-02-10T22:59:17;100749.28;;;1.61;73.70
4024;BME280;2026;51.002;13.668;2023-02-10T23:04:21;100736.28;;;1.74;73.34
4024;BME280;2026;51.002;13.668;2023-02-10T23:09:24;100744.03;;;1.74;72.86
4024;BME280;2026;51.002;13.668;2023-02-10T23:14:27;100729.81;;;1.68;73.11
4024;BME280;2026;51.002;13.668;2023-02-10T23:19:31;100730.53;;;1.71;73.30
4024;BME280;2026;51.002;13.668;2023-02-10T23:24:35;100711.00;;;1.66;73.54
4024;BME280;2026;51.002;13.668;2023-02-10T23:29:38;100708.19;;;1.70;73.93
4024;BME280;2026;51.002;13.668;2023-02-10T23:34:42;100694.56;;;1.67;74.15
4024;BME280;2026;51.002;13.668;2023-02-10T23:39:45;100696.19;;;1.68;74.63
4024;BME280;2026;51.002;13.668;2023-02-10T23:44:48;100690.06;;;1.58;74.76
4024;BME280;2026;51.002;13.668;2023-02-10T23:49:53;100684.22;;;1.67;74.62
4024;BME280;2026;51.002;13.668;2023-02-10T23:54:55;100671.53;;;1.64;75.56
4024;BME280;2026;51.002;13.668;2023-02-10T23:59:58;100664.97;;;1.72;76.01
